Time;durP1;ratioP1;P1;durP2;ratioP2;P2;SDS_P1;SDS_P2;PMS_P1;PMS_P2;Temp;Humidity;BMP_temperature;BMP_pressure;BME280_temperature;BME280_humidity;BME280_pressure;Samples;Min_cycle;Max_cycle;Signal;HPM_P1;HPM_P2
2023/12/21 00:01:04;;;;;;;0.20;0.10;;;5.70;99.90;;;;;;5097872;28;20040;-70
2023/12/21 00:03:29;;;;;;;1.52;0.43;;;5.70;99.90;;;;;;5100512;28;20131;-72
2023/12/21 00:05:55;;;;;;;0.15;0.15;;;5.70;99.90;;;;;;5100176;28;20139;-72
2023/12/21 00:08:20;;;;;;;0.40;0.10;;;5.70;99.90;;;;;;5098190;28;20039;-72
2023/12/21 00:10:46;;;;;;;0.65;0.40;;;5.70;99.90;;;;;;5099790;28;20037;-70
2023/12/21 00:13:11;;;;;;;0.52;0.10;;;5.80;99.90;;;;;;5098452;28;20043;-71
2023/12/21 00:15:37;;;;;;;0.17;0.17;;;5.70;99.90;;;;;;5098864;28;20510;-72
2023/12/21 00:18:03;;;;;;;11.68;0.52;;;5.80;99.90;;;;;;5091135;28;20031;-70
2023/12/21 00:20:28;;;;;;;0.30;0.30;;;5.80;99.90;;;;;;5087077;28;20044;-71
2023/12/21 00:22:54;;;;;;;0.10;0.10;;;5.80;99.90;;;;;;5085934;28;20071;-69
2023/12/21 00:25:19;;;;;;;0.30;0.10;;;5.80;99.90;;;;;;5086483;28;20063;-69
2023/12/21 00:27:45;;;;;;;0.20;0.20;;;5.80;99.90;;;;;;5086059;28;20114;-71
2023/12/21 00:30:11;;;;;;;0.10;0.10;;;5.80;99.90;;;;;;5085059;28;20147;-70
2023/12/21 00:32:36;;;;;;;0.20;0.20;;;5.80;99.90;;;;;;5086300;28;20040;-71
2023/12/21 00:35:02;;;;;;;0.40;0.10;;;5.80;99.90;;;;;;5085113;28;20028;-72
2023/12/21 00:37:28;;;;;;;0.10;0.10;;;5.90;99.90;;;;;;5085289;28;20093;-70
2023/12/21 00:39:53;;;;;;;1.08;0.15;;;5.80;99.90;;;;;;5086239;28;20064;-70
2023/12/21 00:42:19;;;;;;;0.10;0.10;;;5.90;99.90;;;;;;5088122;28;20036;-70
2023/12/21 00:44:46;;;;;;;0.10;0.10;;;5.90;99.90;;;;;;5085489;28;20032;-70
2023/12/21 00:47:11;;;;;;;0.10;0.10;;;5.90;99.90;;;;;;5100396;28;20052;-70
2023/12/21 00:49:37;;;;;;;0.10;0.10;;;5.90;99.90;;;;;;5089720;28;20035;-67
2023/12/21 00:52:03;;;;;;;0.20;0.20;;;5.90;99.90;;;;;;5088700;28;20032;-70
2023/12/21 00:54:28;;;;;;;3.88;0.25;;;5.90;99.90;;;;;;5094442;28;20415;-69
2023/12/21 00:56:54;;;;;;;0.20;0.20;;;5.90;99.90;;;;;;5085944;28;20074;-70
2023/12/21 00:59:19;;;;;;;0.20;0.20;;;6.00;99.90;;;;;;5093161;28;20107;-70
2023/12/21 01:01:45;;;;;;;0.38;0.22;;;5.90;99.90;;;;;;5084931;28;20577;-70
2023/12/21 01:04:10;;;;;;;0.20;0.15;;;6.00;99.90;;;;;;5084263;28;20647;-70
2023/12/21 01:06:36;;;;;;;0.20;0.20;;;5.90;99.90;;;;;;5085352;28;20085;-70
2023/12/21 01:09:03;;;;;;;0.22;0.22;;;6.00;99.90;;;;;;5084842;28;20053;-70
2023/12/21 01:11:29;;;;;;;0.10;0.10;;;6.00;99.90;;;;;;5083443;28;20044;-72
2023/12/21 01:13:54;;;;;;;0.20;0.20;;;6.00;99.90;;;;;;5078496;28;20024;-70
2023/12/21 01:16:20;;;;;;;2.35;0.10;;;6.00;99.90;;;;;;5084233;28;20058;-70
2023/12/21 01:18:46;;;;;;;0.10;0.10;;;6.00;99.90;;;;;;5079393;28;20041;-70
2023/12/21 01:21:12;;;;;;;0.93;0.20;;;6.00;99.90;;;;;;5082124;28;20028;-69
2023/12/21 01:23:38;;;;;;;0.15;0.13;;;6.00;99.90;;;;;;5084612;28;20153;-71
2023/12/21 01:26:04;;;;;;;0.10;0.10;;;6.00;99.90;;;;;;5083414;28;20078;-71
2023/12/21 01:28:30;;;;;;;0.20;0.20;;;6.00;99.90;;;;;;5086947;28;20376;-71
2023/12/21 01:30:55;;;;;;;0.20;0.10;;;6.00;99.90;;;;;;5082052;28;20518;-71
2023/12/21 01:33:21;;;;;;;0.88;0.20;;;6.00;99.90;;;;;;5083556;28;20032;-71
2023/12/21 01:35:46;;;;;;;0.40;0.22;;;6.10;99.90;;;;;;5076680;28;20036;-71
2023/12/21 01:38:12;;;;;;;0.10;0.10;;;6.10;99.90;;;;;;5077038;28;20043;-70
2023/12/21 01:40:38;;;;;;;0.10;0.10;;;6.20;99.90;;;;;;5083222;28;20031;-70
2023/12/21 01:43:04;;;;;;;2.50;0.20;;;6.20;99.90;;;;;;5084189;28;20123;-71
2023/12/21 01:45:30;;;;;;;0.80;0.20;;;6.20;99.90;;;;;;5081365;28;20415;-72
2023/12/21 01:47:55;;;;;;;0.25;0.20;;;6.20;99.90;;;;;;5084553;28;20036;-70
2023/12/21 01:50:22;;;;;;;0.65;0.20;;;6.20;99.90;;;;;;5083333;28;20040;-70
2023/12/21 01:52:48;;;;;;;0.10;0.10;;;6.20;99.90;;;;;;5078051;28;20028;-71
2023/12/21 01:55:16;;;;;;;0.32;0.20;;;6.30;99.90;;;;;;5082358;28;20092;-72
2023/12/21 01:57:43;;;;;;;0.10;0.10;;;6.20;99.90;;;;;;5080811;28;20060;-70
2023/12/21 02:00:10;;;;;;;0.10;0.10;;;6.30;99.90;;;;;;5085255;28;20089;-69
2023/12/21 02:02:35;;;;;;;0.15;0.10;;;6.30;99.90;;;;;;5084694;28;20105;-69
2023/12/21 02:05:01;;;;;;;1.35;0.20;;;6.30;99.90;;;;;;5083618;28;20512;-70
2023/12/21 02:07:27;;;;;;;0.10;0.10;;;6.30;99.90;;;;;;5086071;28;20472;-69
2023/12/21 02:09:52;;;;;;;;;;;6.30;99.90;;;;;;5084738;28;20036;-69
2023/12/21 02:12:18;;;;;;;0.10;0.10;;;6.30;99.90;;;;;;5085060;28;19923;-70
2023/12/21 02:14:43;;;;;;;1.50;0.10;;;6.30;99.90;;;;;;5077057;28;20051;-69
2023/12/21 02:17:12;;;;;;;0.55;0.20;;;6.30;99.90;;;;;;5084944;28;20403;-71
2023/12/21 02:19:41;;;;;;;0.10;0.10;;;6.30;99.90;;;;;;5080412;28;20089;-69
2023/12/21 02:22:09;;;;;;;0.20;0.20;;;6.30;99.90;;;;;;5084602;28;20123;-68
2023/12/21 02:24:35;;;;;;;0.10;0.10;;;6.30;99.90;;;;;;5083408;28;20050;-69
2023/12/21 02:27:00;;;;;;;0.75;0.20;;;6.30;99.90;;;;;;5084084;28;20044;-71
2023/12/21 02:29:26;;;;;;;0.10;0.10;;;6.30;99.90;;;;;;5076939;28;20093;-71
2023/12/21 02:31:51;;;;;;;0.10;0.10;;;6.40;99.90;;;;;;5084347;28;20543;-69
2023/12/21 02:34:17;;;;;;;0.10;0.10;;;6.30;99.90;;;;;;5085313;28;20031;-69
2023/12/21 02:36:43;;;;;;;0.20;0.15;;;6.40;99.90;;;;;;5082191;28;20143;-70
2023/12/21 02:39:08;;;;;;;0.80;0.17;;;6.40;99.90;;;;;;5071780;28;20739;-69
2023/12/21 02:41:34;;;;;;;2.58;0.10;;;6.40;99.90;;;;;;5083367;28;20036;-69
2023/12/21 02:43:59;;;;;;;0.10;0.10;;;6.40;99.90;;;;;;5077248;28;20745;-70
2023/12/21 02:46:26;;;;;;;2.20;0.20;;;6.40;99.90;;;;;;5069592;28;20508;-70
2023/12/21 02:48:52;;;;;;;0.10;0.10;;;6.40;99.90;;;;;;5072843;28;20044;-70
2023/12/21 02:51:18;;;;;;;0.65;0.20;;;6.40;99.90;;;;;;5075612;28;20043;-68
2023/12/21 02:53:43;;;;;;;0.13;0.13;;;6.50;99.90;;;;;;5081955;28;20036;-69
2023/12/21 02:56:09;;;;;;;0.20;0.20;;;6.50;99.90;;;;;;5076128;28;20035;-69
2023/12/21 02:58:35;;;;;;;0.10;0.10;;;6.50;99.90;;;;;;5077765;28;20036;-70
2023/12/21 03:01:01;;;;;;;0.10;0.10;;;6.50;99.90;;;;;;5079980;28;20089;-69
2023/12/21 03:03:27;;;;;;;0.20;0.20;;;6.50;99.90;;;;;;5086111;28;20075;-70
2023/12/21 03:05:52;;;;;;;0.20;0.20;;;6.50;99.90;;;;;;5079752;28;20131;-69
2023/12/21 03:08:18;;;;;;;0.40;0.20;;;6.50;99.90;;;;;;5079849;28;20036;-68
2023/12/21 03:10:43;;;;;;;2.47;0.20;;;6.50;99.90;;;;;;5081836;28;20155;-70
2023/12/21 03:13:09;;;;;;;0.20;0.20;;;6.50;99.90;;;;;;5070729;28;20071;-68
2023/12/21 03:15:35;;;;;;;0.13;0.13;;;6.60;99.90;;;;;;5076568;28;20086;-70
2023/12/21 03:18:00;;;;;;;0.15;0.10;;;6.60;99.90;;;;;;5071822;28;20047;-70
2023/12/21 03:20:26;;;;;;;0.52;0.20;;;6.50;99.90;;;;;;5071394;28;20046;-69
2023/12/21 03:22:51;;;;;;;0.90;0.20;;;6.50;99.90;;;;;;5084496;28;20073;-70
2023/12/21 03:25:17;;;;;;;0.20;0.13;;;6.50;99.90;;;;;;5085374;28;20032;-69
2023/12/21 03:27:43;;;;;;;0.17;0.17;;;6.50;99.90;;;;;;5083632;28;20040;-69
2023/12/21 03:30:10;;;;;;;0.38;0.20;;;6.50;99.90;;;;;;5079638;28;20476;-71
2023/12/21 03:32:36;;;;;;;0.90;0.20;;;6.60;99.90;;;;;;5083241;28;20044;-70
2023/12/21 03:35:03;;;;;;;1.08;0.20;;;6.50;99.90;;;;;;5079016;28;20036;-69
2023/12/21 03:37:29;;;;;;;0.80;0.30;;;6.50;99.90;;;;;;5082814;28;20048;-69
2023/12/21 03:39:58;;;;;;;0.47;0.20;;;6.50;99.90;;;;;;5079304;28;20044;-70
2023/12/21 03:42:23;;;;;;;0.40;0.20;;;6.50;99.90;;;;;;5076846;28;20056;-72
2023/12/21 03:44:49;;;;;;;0.10;0.10;;;6.50;99.90;;;;;;5082546;28;20032;-70
2023/12/21 03:47:14;;;;;;;0.57;0.17;;;6.50;99.90;;;;;;5082988;28;20079;-71
2023/12/21 03:49:40;;;;;;;0.30;0.25;;;6.50;99.90;;;;;;5073496;28;20043;-70
2023/12/21 03:52:06;;;;;;;0.10;0.10;;;6.50;99.90;;;;;;5069200;28;20052;-69
2023/12/21 03:54:32;;;;;;;0.47;0.20;;;6.50;99.90;;;;;;5073064;28;20048;-70
2023/12/21 03:56:57;;;;;;;;;;;6.50;99.90;;;;;;5072681;28;20044;-71
2023/12/21 03:59:23;;;;;;;1.38;0.20;;;6.50;99.90;;;;;;5075042;28;19956;-71
2023/12/21 04:01:48;;;;;;;0.20;0.20;;;6.50;99.90;;;;;;5069303;28;20623;-69
2023/12/21 04:04:14;;;;;;;0.20;0.20;;;6.50;99.90;;;;;;5068990;28;20040;-71
2023/12/21 04:06:39;;;;;;;0.17;0.17;;;6.50;99.90;;;;;;5066606;28;20048;-70
2023/12/21 04:09:05;;;;;;;0.20;0.20;;;6.50;99.90;;;;;;5066860;28;20071;-70
2023/12/21 04:11:31;;;;;;;0.30;0.28;;;6.50;99.90;;;;;;5066535;28;20056;-70
2023/12/21 04:13:57;;;;;;;0.40;0.20;;;6.50;99.90;;;;;;5066763;28;20033;-70
2023/12/21 04:16:22;;;;;;;;;;;6.60;99.90;;;;;;5067452;28;20118;-70
2023/12/21 04:18:48;;;;;;;0.35;0.30;;;6.60;99.90;;;;;;5065312;28;19963;-70
2023/12/21 04:21:14;;;;;;;0.20;0.20;;;6.60;99.90;;;;;;5065455;28;20037;-71
2023/12/21 04:23:39;;;;;;;0.20;0.20;;;6.60;99.90;;;;;;5069468;28;20154;-70
2023/12/21 04:26:05;;;;;;;0.20;0.20;;;6.60;99.90;;;;;;5097226;27;20045;-69
2023/12/21 04:28:30;;;;;;;0.10;0.10;;;6.60;99.90;;;;;;5064735;28;20205;-72
2023/12/21 04:30:56;;;;;;;0.20;0.20;;;6.60;99.90;;;;;;5072082;28;20036;-69
2023/12/21 04:33:21;;;;;;;2.85;0.30;;;6.60;99.90;;;;;;5089487;28;20074;-70
2023/12/21 04:35:47;;;;;;;0.40;0.40;;;6.60;99.90;;;;;;5086125;28;20044;-69
2023/12/21 04:38:13;;;;;;;0.20;0.20;;;6.60;99.90;;;;;;5092129;28;20050;-68
2023/12/21 04:40:39;;;;;;;1.55;0.20;;;6.60;99.90;;;;;;5089155;28;20035;-71
2023/12/21 04:43:06;;;;;;;0.35;0.20;;;6.60;99.90;;;;;;5090522;28;20028;-70
2023/12/21 04:45:32;;;;;;;0.63;0.32;;;6.60;99.90;;;;;;5088345;28;20130;-70
2023/12/21 04:47:58;;;;;;;0.30;0.30;;;6.60;99.90;;;;;;5086493;28;20456;-70
2023/12/21 04:50:23;;;;;;;0.50;0.28;;;6.60;99.90;;;;;;5088219;28;20042;-69
2023/12/21 04:52:49;;;;;;;0.28;0.28;;;6.60;99.90;;;;;;5084952;28;20040;-72
2023/12/21 04:55:16;;;;;;;0.28;0.20;;;6.60;99.90;;;;;;5085804;28;20039;-69
2023/12/21 04:57:41;;;;;;;0.20;0.20;;;6.60;99.90;;;;;;5087536;28;20097;-72
2023/12/21 05:00:08;;;;;;;1.13;0.30;;;6.60;99.90;;;;;;5090778;28;20020;-69
2023/12/21 05:02:34;;;;;;;0.20;0.20;;;6.60;99.90;;;;;;5089580;28;20059;-69
2023/12/21 05:05:00;;;;;;;0.43;0.20;;;6.60;99.90;;;;;;5084699;28;20155;-65
2023/12/21 05:07:26;;;;;;;0.10;0.10;;;6.60;99.90;;;;;;5084869;28;20044;-68
2023/12/21 05:09:51;;;;;;;0.50;0.13;;;6.60;99.90;;;;;;5084229;28;20089;-69
2023/12/21 05:12:17;;;;;;;0.17;0.17;;;6.60;99.90;;;;;;5086295;28;20032;-69
2023/12/21 05:14:43;;;;;;;0.30;0.20;;;6.60;99.90;;;;;;5084004;28;20035;-69
2023/12/21 05:17:08;;;;;;;0.13;0.10;;;6.60;99.90;;;;;;5086881;28;20040;-69
2023/12/21 05:19:34;;;;;;;;;;;6.60;99.90;;;;;;5081138;28;20763;-68
2023/12/21 05:21:59;;;;;;;0.70;0.10;;;6.60;99.90;;;;;;5084565;28;20331;-67
2023/12/21 05:24:25;;;;;;;0.20;0.20;;;6.60;99.90;;;;;;5084942;28;20440;-68
2023/12/21 05:26:51;;;;;;;1.08;0.20;;;6.50;99.90;;;;;;5086121;28;20043;-69
2023/12/21 05:29:17;;;;;;;0.32;0.20;;;6.60;99.90;;;;;;5085078;28;20032;-69
2023/12/21 05:31:42;;;;;;;0.20;0.20;;;6.60;99.90;;;;;;5086039;28;20036;-69
2023/12/21 05:34:08;;;;;;;0.10;0.10;;;6.60;99.90;;;;;;5090781;28;20563;-68
2023/12/21 05:36:33;;;;;;;;;;;6.60;99.90;;;;;;5081405;28;20051;-67
2023/12/21 05:39:00;;;;;;;0.55;0.25;;;6.60;99.90;;;;;;5081116;28;20042;-67
2023/12/21 05:41:26;;;;;;;0.20;0.20;;;6.60;99.90;;;;;;5087769;28;20036;-68
2023/12/21 05:43:52;;;;;;;0.20;0.20;;;6.60;99.90;;;;;;5082359;28;20135;-67
2023/12/21 05:46:17;;;;;;;0.20;0.20;;;6.60;99.90;;;;;;5083541;28;20042;-63
2023/12/21 05:48:43;;;;;;;;;;;6.70;99.90;;;;;;5083440;28;20036;-65
2023/12/21 05:51:08;;;;;;;0.20;0.20;;;6.60;99.90;;;;;;5083838;28;19920;-67
2023/12/21 05:53:34;;;;;;;2.67;0.30;;;6.60;99.90;;;;;;5091976;28;20032;-67
2023/12/21 05:56:00;;;;;;;0.22;0.20;;;6.60;99.90;;;;;;5088715;28;20432;-67
2023/12/21 05:58:25;;;;;;;0.20;0.20;;;6.60;99.90;;;;;;5085531;28;20036;-68
2023/12/21 06:00:51;;;;;;;0.10;0.10;;;6.60;99.90;;;;;;5083500;28;20024;-67
2023/12/21 06:03:16;;;;;;;0.20;0.20;;;6.60;99.90;;;;;;5085690;28;20028;-68
2023/12/21 06:05:42;;;;;;;1.50;0.32;;;6.60;99.90;;;;;;5086921;28;20101;-69
2023/12/21 06:08:09;;;;;;;0.15;0.15;;;6.60;99.90;;;;;;5082604;28;20695;-68
2023/12/21 06:10:34;;;;;;;0.20;0.20;;;6.60;99.90;;;;;;5082711;28;20035;-69
2023/12/21 06:13:00;;;;;;;2.47;0.20;;;6.60;99.90;;;;;;5081233;28;20123;-65
2023/12/21 06:15:26;;;;;;;0.40;0.38;;;6.60;99.90;;;;;;5087214;28;20070;-70
2023/12/21 06:17:51;;;;;;;0.40;0.20;;;6.60;99.90;;;;;;5086887;28;20040;-66
2023/12/21 06:20:17;;;;;;;0.80;0.10;;;6.60;99.90;;;;;;5091482;28;20028;-65
2023/12/21 06:22:45;;;;;;;0.20;0.10;;;6.70;99.90;;;;;;5082446;28;20061;-65
2023/12/21 06:25:11;;;;;;;0.10;0.10;;;6.60;99.90;;;;;;5082210;28;20471;-64
2023/12/21 06:27:37;;;;;;;0.30;0.30;;;6.60;99.90;;;;;;5082485;28;20036;-70
2023/12/21 06:30:04;;;;;;;0.17;0.10;;;6.70;99.90;;;;;;5078017;28;20036;-69
2023/12/21 06:32:30;;;;;;;1.85;0.10;;;6.70;99.90;;;;;;5082093;28;20093;-66
2023/12/21 06:34:56;;;;;;;0.25;0.20;;;6.70;99.90;;;;;;5084365;28;20044;-68
2023/12/21 06:37:21;;;;;;;;;;;6.70;99.90;;;;;;5083812;28;20694;-68
2023/12/21 06:39:47;;;;;;;0.30;0.10;;;6.60;99.90;;;;;;5089700;28;20450;-67
2023/12/21 06:42:12;;;;;;;0.20;0.20;;;6.60;99.90;;;;;;5083779;28;20102;-68
2023/12/21 06:44:39;;;;;;;0.80;0.10;;;6.60;99.90;;;;;;5083738;28;20516;-67
2023/12/21 06:47:05;;;;;;;0.32;0.10;;;6.60;99.90;;;;;;5087864;28;20118;-67
2023/12/21 06:49:30;;;;;;;0.17;0.10;;;6.60;99.90;;;;;;5083670;28;20130;-68
2023/12/21 06:51:56;;;;;;;0.43;0.10;;;6.70;99.90;;;;;;5080749;28;20038;-67
2023/12/21 06:54:22;;;;;;;0.20;0.20;;;6.70;99.90;;;;;;5088121;28;20043;-68
2023/12/21 06:56:47;;;;;;;;;;;6.70;99.90;;;;;;5082807;28;20051;-68
2023/12/21 06:59:13;;;;;;;0.38;0.20;;;6.60;99.90;;;;;;5087103;28;19919;-68
2023/12/21 07:01:39;;;;;;;0.20;0.10;;;6.60;99.90;;;;;;5082389;28;20048;-66
2023/12/21 07:04:05;;;;;;;0.10;0.10;;;6.70;99.90;;;;;;5079301;28;20558;-68
2023/12/21 07:06:30;;;;;;;0.10;0.10;;;6.70;99.90;;;;;;5087111;28;20507;-68
2023/12/21 07:08:56;;;;;;;0.20;0.10;;;6.60;99.90;;;;;;5086261;28;20040;-67
2023/12/21 07:11:23;;;;;;;0.10;0.10;;;6.70;99.90;;;;;;5089693;28;20135;-67
2023/12/21 07:13:48;;;;;;;1.48;0.20;;;6.60;99.90;;;;;;5080834;28;20076;-68
2023/12/21 07:16:14;;;;;;;0.10;0.10;;;6.70;99.90;;;;;;5085697;28;20516;-67
2023/12/21 07:18:39;;;;;;;0.20;0.20;;;6.70;99.90;;;;;;5083429;28;20051;-67
2023/12/21 07:21:05;;;;;;;0.17;0.17;;;6.70;99.90;;;;;;5086707;28;20036;-68
2023/12/21 07:23:31;;;;;;;0.28;0.20;;;6.70;99.90;;;;;;5082968;28;20051;-68
2023/12/21 07:25:57;;;;;;;0.50;0.20;;;6.70;99.90;;;;;;5083682;28;20040;-67
2023/12/21 07:28:23;;;;;;;;;;;6.70;99.90;;;;;;5087718;28;20036;-67
2023/12/21 07:30:49;;;;;;;0.15;0.10;;;6.70;99.90;;;;;;5094532;28;19999;-66
2023/12/21 07:33:15;;;;;;;;;;;6.70;99.90;;;;;;5095400;28;20137;-68
2023/12/21 07:35:41;;;;;;;0.15;0.15;;;6.70;99.90;;;;;;5084588;28;20385;-68
2023/12/21 07:38:07;;;;;;;0.30;0.10;;;6.70;99.90;;;;;;5090988;28;20131;-68
2023/12/21 07:40:33;;;;;;;0.20;0.20;;;6.80;99.90;;;;;;5088431;28;20043;-68
2023/12/21 07:42:58;;;;;;;0.10;0.10;;;6.70;99.90;;;;;;5090655;28;20039;-69
2023/12/21 07:45:24;;;;;;;;;;;6.80;99.90;;;;;;5096765;28;20166;-68
2023/12/21 07:47:49;;;;;;;0.10;0.10;;;6.80;99.90;;;;;;5088003;28;20825;-67
2023/12/21 07:50:15;;;;;;;0.10;0.10;;;6.80;99.90;;;;;;5089837;28;20557;-68
2023/12/21 07:52:40;;;;;;;;;;;6.80;99.90;;;;;;5085627;28;20028;-68
2023/12/21 07:55:07;;;;;;;0.32;0.10;;;6.80;99.90;;;;;;5086263;28;19919;-67
2023/12/21 07:57:32;;;;;;;0.20;0.20;;;6.80;99.90;;;;;;5087195;28;20071;-67
2023/12/21 07:59:58;;;;;;;0.75;0.10;;;6.90;99.90;;;;;;5094636;28;20052;-68
2023/12/21 08:02:24;;;;;;;;;;;6.90;99.90;;;;;;5086599;28;20068;-68
2023/12/21 08:04:50;;;;;;;0.20;0.20;;;6.90;99.90;;;;;;5089871;28;20731;-67
2023/12/21 08:07:16;;;;;;;1.08;0.28;;;6.90;99.90;;;;;;5086700;28;20040;-68
2023/12/21 08:09:42;;;;;;;1.00;0.20;;;6.90;99.90;;;;;;5087042;28;20388;-68
2023/12/21 08:12:09;;;;;;;0.28;0.20;;;6.90;99.90;;;;;;5093144;28;20546;-67
2023/12/21 08:14:37;;;;;;;0.30;0.20;;;6.90;99.90;;;;;;5086611;28;20066;-67
2023/12/21 08:17:07;;;;;;;0.10;0.10;;;6.90;99.90;;;;;;5085167;28;20075;-67
2023/12/21 08:19:33;;;;;;;1.70;0.22;;;7.00;99.90;;;;;;5086077;28;20129;-67
2023/12/21 08:21:59;;;;;;;0.20;0.20;;;6.90;99.90;;;;;;5086793;28;20044;-68
2023/12/21 08:24:24;;;;;;;0.28;0.15;;;7.00;99.90;;;;;;5085716;28;20055;-68
2023/12/21 08:26:50;;;;;;;;;;;6.90;99.90;;;;;;5087268;28;20559;-68
2023/12/21 08:29:15;;;;;;;0.20;0.20;;;7.00;99.90;;;;;;5086374;28;19938;-68
2023/12/21 08:31:41;;;;;;;;;;;7.00;99.90;;;;;;5085774;28;20082;-66
2023/12/21 08:34:07;;;;;;;0.55;0.20;;;7.00;99.90;;;;;;5089307;28;19920;-67
2023/12/21 08:36:33;;;;;;;0.30;0.22;;;7.00;99.90;;;;;;5087471;28;20102;-67
2023/12/21 08:38:58;;;;;;;;;;;7.00;99.90;;;;;;5085733;28;20036;-67
2023/12/21 08:41:26;;;;;;;0.43;0.30;;;7.00;99.90;;;;;;5084734;28;20291;-68
2023/12/21 08:43:51;;;;;;;0.15;0.15;;;7.00;99.90;;;;;;5086800;28;20055;-67
2023/12/21 08:46:17;;;;;;;2.67;0.40;;;7.00;99.90;;;;;;5083441;28;20036;-67
2023/12/21 08:48:42;;;;;;;;;;;7.00;99.90;;;;;;5085746;28;20044;-67
2023/12/21 08:51:08;;;;;;;0.30;0.22;;;7.00;99.90;;;;;;5087906;28;19963;-67
2023/12/21 08:53:34;;;;;;;0.60;0.30;;;7.00;99.90;;;;;;5087400;28;20178;-67
2023/12/21 08:56:02;;;;;;;2.72;1.10;;;7.00;99.90;;;;;;5086654;28;20036;-68
2023/12/21 08:58:27;;;;;;;0.38;0.30;;;7.00;99.90;;;;;;5086265;28;20101;-68
2023/12/21 09:00:53;;;;;;;0.70;0.20;;;7.00;99.90;;;;;;5086151;28;20028;-67
2023/12/21 09:03:19;;;;;;;;;;;7.00;99.90;;;;;;5089133;28;20040;-66
2023/12/21 09:05:45;;;;;;;0.45;0.25;;;7.00;99.90;;;;;;5087548;28;19916;-66
2023/12/21 09:08:10;;;;;;;0.30;0.22;;;7.00;99.90;;;;;;5084281;28;20043;-66
2023/12/21 09:10:36;;;;;;;1.02;0.32;;;7.10;99.90;;;;;;5086819;28;20032;-67
2023/12/21 09:13:02;;;;;;;0.63;0.35;;;7.10;99.90;;;;;;5084732;28;20040;-67
2023/12/21 09:15:28;;;;;;;1.17;0.22;;;7.10;99.90;;;;;;5085691;28;20123;-68
2023/12/21 09:17:54;;;;;;;0.82;0.30;;;7.10;99.90;;;;;;5085799;28;20206;-68
2023/12/21 09:20:19;;;;;;;0.20;0.20;;;7.10;99.90;;;;;;5084310;28;20800;-67
2023/12/21 09:22:46;;;;;;;;;;;7.10;99.90;;;;;;5084577;28;20039;-66
2023/12/21 09:25:11;;;;;;;1.30;0.22;;;7.10;99.90;;;;;;5082480;28;19943;-68
2023/12/21 09:27:37;;;;;;;0.13;0.13;;;7.10;99.90;;;;;;5085868;28;20492;-66
2023/12/21 09:30:05;;;;;;;0.50;0.30;;;7.10;99.90;;;;;;5085706;28;20714;-66
2023/12/21 09:32:31;;;;;;;1.65;0.40;;;7.10;99.90;;;;;;5083213;28;20044;-67
2023/12/21 09:34:56;;;;;;;0.32;0.25;;;7.10;99.90;;;;;;5085768;28;20051;-68
2023/12/21 09:37:22;;;;;;;0.95;0.30;;;7.10;99.90;;;;;;5083579;28;20487;-67
2023/12/21 09:39:47;;;;;;;0.30;0.20;;;7.10;99.90;;;;;;5085254;28;20040;-68
2023/12/21 09:42:14;;;;;;;;;;;7.10;99.90;;;;;;5083797;28;20039;-68
2023/12/21 09:44:40;;;;;;;0.20;0.20;;;7.20;99.90;;;;;;5086036;28;20011;-68
2023/12/21 09:47:07;;;;;;;0.38;0.22;;;7.20;99.90;;;;;;5083988;28;20079;-70
2023/12/21 09:49:36;;;;;;;0.32;0.30;;;7.20;99.90;;;;;;5090950;28;20093;-67
2023/12/21 09:52:07;;;;;;;0.57;0.47;;;7.20;99.90;;;;;;5074882;28;20032;-68
2023/12/21 09:54:35;;;;;;;2.78;0.43;;;7.30;99.90;;;;;;5082568;28;20173;-67
2023/12/21 09:57:03;;;;;;;0.43;0.20;;;7.20;99.90;;;;;;5081207;28;20407;-68
2023/12/21 09:59:31;;;;;;;0.20;0.20;;;7.20;99.90;;;;;;5084527;28;20130;-67
2023/12/21 10:01:57;;;;;;;1.45;0.20;;;7.20;99.90;;;;;;5083019;28;20062;-67
2023/12/21 10:04:23;;;;;;;0.65;0.47;;;7.20;99.90;;;;;;5082236;28;20829;-66
2023/12/21 10:06:49;;;;;;;0.70;0.50;;;7.20;99.90;;;;;;5083448;28;20220;-66
2023/12/21 10:09:15;;;;;;;0.40;0.22;;;7.20;99.90;;;;;;5082862;28;20036;-66
2023/12/21 10:11:41;;;;;;;0.40;0.30;;;7.20;99.90;;;;;;5085199;28;20040;-67
2023/12/21 10:14:19;;;;;;;0.82;0.28;;;7.20;99.90;;;;;;5083358;28;20028;-66
2023/12/21 10:16:45;;;;;;;0.30;0.20;;;7.30;99.90;;;;;;5078971;28;20063;-66
2023/12/21 10:19:12;;;;;;;2.67;0.40;;;7.30;99.90;;;;;;5084629;28;20071;-68
2023/12/21 10:21:41;;;;;;;2.65;0.40;;;7.30;99.90;;;;;;5085851;28;20423;-66
2023/12/21 10:24:07;;;;;;;0.25;0.20;;;7.30;99.90;;;;;;5084299;28;20036;-67
2023/12/21 10:26:44;;;;;;;0.73;0.20;;;7.30;99.90;;;;;;5079745;28;20040;-67
2023/12/21 10:29:15;;;;;;;2.70;0.20;;;7.40;99.90;;;;;;5083540;28;20036;-67
2023/12/21 10:31:45;;;;;;;0.32;0.30;;;7.30;99.90;;;;;;5082878;28;20028;-68
2023/12/21 10:34:11;;;;;;;0.50;0.20;;;7.30;99.90;;;;;;5083062;28;20039;-67
2023/12/21 10:36:44;;;;;;;0.40;0.20;;;7.30;99.90;;;;;;5084128;28;20044;-67
2023/12/21 10:39:14;;;;;;;0.98;0.30;;;7.30;99.90;;;;;;5075482;28;20418;-67
2023/12/21 10:41:42;;;;;;;0.28;0.10;;;7.40;99.90;;;;;;5084076;28;20081;-67
2023/12/21 10:44:07;;;;;;;4.60;0.20;;;7.40;99.90;;;;;;5082331;28;20070;-67
2023/12/21 10:46:34;;;;;;;0.60;0.20;;;7.40;99.90;;;;;;5084658;28;20430;-67
2023/12/21 10:49:01;;;;;;;0.20;0.20;;;7.40;99.90;;;;;;5083349;28;20028;-67
2023/12/21 10:51:37;;;;;;;0.75;0.30;;;7.50;99.90;;;;;;5084245;28;21446;-67
2023/12/21 10:54:08;;;;;;;1.77;0.20;;;7.50;99.90;;;;;;5077611;28;20704;-67
2023/12/21 10:56:37;;;;;;;2.45;0.25;;;7.40;99.90;;;;;;5079295;28;20100;-67
2023/12/21 10:59:03;;;;;;;0.55;0.20;;;7.50;99.90;;;;;;5082898;28;20202;-68
2023/12/21 11:01:30;;;;;;;1.17;0.30;;;7.50;99.90;;;;;;5083241;28;20705;-66
2023/12/21 11:03:58;;;;;;;0.20;0.20;;;7.50;99.90;;;;;;5081721;28;20082;-67
2023/12/21 11:06:25;;;;;;;0.95;0.10;;;7.50;99.90;;;;;;5074051;28;20040;-68
2023/12/21 11:08:52;;;;;;;1.75;0.17;;;7.50;99.90;;;;;;5082948;28;20040;-68
2023/12/21 11:11:22;;;;;;;3.28;0.40;;;7.50;99.90;;;;;;5091813;28;20036;-66
2023/12/21 11:13:52;;;;;;;0.68;0.20;;;7.50;99.90;;;;;;5075486;28;20068;-68
2023/12/21 11:16:22;;;;;;;1.95;0.20;;;7.60;99.90;;;;;;5082498;28;20039;-67
2023/12/21 11:18:49;;;;;;;0.20;0.10;;;7.60;99.90;;;;;;5083696;28;20046;-66
2023/12/21 11:21:16;;;;;;;0.35;0.20;;;7.60;99.90;;;;;;5081035;28;20070;-67
2023/12/21 11:23:44;;;;;;;0.47;0.13;;;7.60;99.90;;;;;;5080165;28;20079;-67
2023/12/21 11:26:10;;;;;;;0.10;0.10;;;7.60;99.90;;;;;;5080505;28;20048;-67
2023/12/21 11:28:37;;;;;;;0.30;0.10;;;7.60;99.90;;;;;;5084373;28;20028;-68
2023/12/21 11:31:15;;;;;;;0.10;0.10;;;7.60;99.90;;;;;;5082594;28;20040;-68
2023/12/21 11:33:41;;;;;;;0.60;0.10;;;7.60;99.90;;;;;;5080570;28;20085;-69
2023/12/21 11:36:08;;;;;;;0.10;0.10;;;7.50;99.90;;;;;;5088959;28;20035;-68
2023/12/21 11:38:48;;;;;;;0.32;0.10;;;7.50;99.90;;;;;;5072932;28;20047;-65
2023/12/21 11:41:16;;;;;;;0.32;0.30;;;7.60;99.90;;;;;;5079078;28;20507;-68
2023/12/21 11:43:56;;;;;;;0.55;0.30;;;7.60;99.90;;;;;;5081084;28;20549;-66
2023/12/21 11:46:21;;;;;;;0.30;0.20;;;7.50;99.90;;;;;;5081548;28;20063;-63
2023/12/21 11:48:47;;;;;;;0.10;0.10;;;7.50;99.90;;;;;;5083001;28;20077;-67
2023/12/21 11:51:12;;;;;;;1.83;0.17;;;7.50;99.90;;;;;;5082939;28;20028;-66
2023/12/21 11:53:43;;;;;;;0.10;0.10;;;7.50;99.90;;;;;;5078094;28;20040;-67
2023/12/21 11:56:13;;;;;;;1.35;0.20;;;7.50;99.90;;;;;;5072035;28;20039;-69
2023/12/21 11:58:40;;;;;;;1.33;0.20;;;7.60;99.90;;;;;;5075302;28;20037;-68
2023/12/21 12:01:07;;;;;;;0.15;0.15;;;7.60;99.90;;;;;;5079480;28;20040;-68
2023/12/21 12:03:33;;;;;;;0.20;0.10;;;7.60;99.90;;;;;;5074502;28;20051;-68
2023/12/21 12:06:00;;;;;;;1.38;0.17;;;7.60;99.90;;;;;;5079886;28;20040;-68
2023/12/21 12:08:26;;;;;;;0.40;0.10;;;7.60;99.90;;;;;;5078744;28;20055;-70
2023/12/21 12:10:57;;;;;;;0.55;0.10;;;7.60;99.90;;;;;;5085513;28;20032;-67
2023/12/21 12:13:23;;;;;;;0.10;0.10;;;7.60;99.90;;;;;;5081228;28;20123;-68
2023/12/21 12:15:52;;;;;;;0.10;0.10;;;7.60;99.90;;;;;;5078653;28;20118;-68
2023/12/21 12:18:21;;;;;;;0.38;0.20;;;7.60;99.90;;;;;;5080669;28;20047;-66
2023/12/21 12:20:49;;;;;;;0.30;0.25;;;7.70;99.90;;;;;;5078364;28;20039;-68
2023/12/21 12:23:15;;;;;;;0.10;0.10;;;7.70;99.90;;;;;;5062745;28;20682;-68
2023/12/21 12:25:42;;;;;;;0.10;0.10;;;7.70;99.90;;;;;;5082951;28;20032;-68
2023/12/21 12:28:08;;;;;;;0.10;0.10;;;7.80;99.90;;;;;;5081620;28;20039;-64
2023/12/21 12:30:37;;;;;;;0.13;0.13;;;7.70;99.90;;;;;;5081320;28;20047;-67
2023/12/21 12:33:04;;;;;;;0.70;0.50;;;7.70;99.90;;;;;;5080043;28;20032;-66
2023/12/21 12:35:36;;;;;;;1.08;0.30;;;7.70;99.90;;;;;;5079606;28;20489;-66
2023/12/21 12:38:05;;;;;;;2.78;0.55;;;7.70;99.90;;;;;;5081466;28;20665;-65
2023/12/21 12:40:32;;;;;;;2.22;0.60;;;7.70;99.90;;;;;;5072990;28;20444;-67
2023/12/21 12:42:58;;;;;;;1.58;0.57;;;7.70;99.90;;;;;;5085139;28;20471;-67
2023/12/21 12:45:24;;;;;;;2.60;0.80;;;7.70;99.90;;;;;;5082022;28;20119;-67
2023/12/21 12:47:50;;;;;;;2.22;1.30;;;7.60;99.90;;;;;;5082689;28;20124;-67
2023/12/21 12:50:15;;;;;;;1.73;1.15;;;7.60;99.90;;;;;;5080511;28;20036;-67
2023/12/21 12:52:41;;;;;;;1.85;1.23;;;7.60;99.90;;;;;;5081338;28;20633;-65
2023/12/21 12:55:08;;;;;;;2.25;1.27;;;7.60;99.90;;;;;;5087537;28;20123;-67
2023/12/21 12:57:34;;;;;;;3.60;1.58;;;7.60;99.90;;;;;;5077266;28;20135;-67